createdAt,value
2022-11-30T00:01:20.559Z,97439.75
2022-11-30T00:03:48.337Z,97437.34
2022-11-30T00:06:16.900Z,97443.59
2022-11-30T00:08:43.586Z,97445.38
2022-11-30T00:11:15.282Z,97440.13
2022-11-30T00:13:42.537Z,97434.81
2022-11-30T00:16:10.164Z,97442.06
2022-11-30T00:18:37.505Z,97440.28
2022-11-30T00:21:08.630Z,97440.28
2022-11-30T00:23:37.885Z,97441.81
2022-11-30T00:26:07.151Z,97443.59
2022-11-30T00:28:34.821Z,97440.97
2022-11-30T00:31:04.175Z,97439.28
2022-11-30T00:33:34.635Z,97436.59
2022-11-30T00:36:04.273Z,97431.34
2022-11-30T00:38:32.772Z,97444.53
2022-11-30T00:41:00.708Z,97436.56
2022-11-30T00:43:27.578Z,97447.06
2022-11-30T00:45:54.773Z,97443.75
2022-11-30T00:48:21.521Z,97447.91
2022-11-30T00:50:49.851Z,97435.66
2022-11-30T00:53:17.299Z,97446.16
2022-11-30T00:55:45.177Z,97447.91
2022-11-30T00:58:12.669Z,97438.28
2022-11-30T01:00:40.365Z,97446.16
2022-11-30T01:03:07.378Z,97448.69
2022-11-30T01:05:34.662Z,97438.97
2022-11-30T01:08:02.538Z,97451.91
2022-11-30T01:10:29.254Z,97440.66
2022-11-30T01:12:56.160Z,97438.78
2022-11-30T01:15:23.348Z,97445.06
2022-11-30T01:17:50.027Z,97448.69
2022-11-30T01:20:16.717Z,97443.50
2022-11-30T01:22:43.473Z,97441.28
2022-11-30T01:25:10.194Z,97441.22
2022-11-30T01:27:36.829Z,97445.44
2022-11-30T01:30:05.321Z,97451.59
2022-11-30T01:32:32.075Z,97448.84
2022-11-30T01:34:58.722Z,97451.59
2022-11-30T01:37:25.283Z,97450.53
2022-11-30T01:39:51.881Z,97443.03
2022-11-30T01:42:20.818Z,97443.91
2022-11-30T01:44:57.377Z,97439.44
2022-11-30T01:47:29.565Z,97430.50
2022-11-30T01:50:13.524Z,97437.28
2022-11-30T01:52:43.541Z,97434.75
2022-11-30T01:55:24.647Z,97432.22
2022-11-30T01:58:00.467Z,97433.94
2022-11-30T02:00:27.279Z,97438.22
2022-11-30T02:03:12.892Z,97436.56
2022-11-30T02:05:41.366Z,97436.75
2022-11-30T02:08:10.781Z,97434.31
2022-11-30T02:10:45.131Z,97442.16
2022-11-30T02:13:33.600Z,97445.59
2022-11-30T02:16:03.029Z,97444.66
2022-11-30T02:18:59.258Z,97444.75
2022-11-30T02:21:40.892Z,97446.56
2022-11-30T02:24:10.597Z,97441.53
2022-11-30T02:26:54.664Z,97447.63
2022-11-30T02:29:31.832Z,97448.63
2022-11-30T02:32:11.926Z,97441.63
2022-11-30T02:34:41.486Z,97444.28
2022-11-30T02:37:10.790Z,97438.09
2022-11-30T02:39:37.379Z,97439.69
2022-11-30T02:42:04.050Z,97438.94
2022-11-30T02:44:30.809Z,97437.34
2022-11-30T02:47:23.629Z,97439.78
2022-11-30T02:49:56.579Z,97442.31
2022-11-30T02:52:27.097Z,97442.25
2022-11-30T02:55:06.369Z,97445.84
2022-11-30T02:57:34.013Z,97450.09
2022-11-30T03:00:03.482Z,97446.72
2022-11-30T03:02:30.156Z,97443.03
2022-11-30T03:04:56.829Z,97450.81
2022-11-30T03:07:23.481Z,97452.72
2022-11-30T03:09:50.392Z,97445.63
2022-11-30T03:12:16.980Z,97442.41
2022-11-30T03:14:43.749Z,97449.47
2022-11-30T03:17:10.514Z,97445.84
2022-11-30T03:19:37.083Z,97446.84
2022-11-30T03:22:03.999Z,97450.50
2022-11-30T03:24:30.582Z,97452.19
2022-11-30T03:26:57.434Z,97452.13
2022-11-30T03:29:24.154Z,97448.63
2022-11-30T03:31:50.803Z,97446.03
2022-11-30T03:34:17.429Z,97448.75
2022-11-30T03:36:44.037Z,97447.19
2022-11-30T03:39:10.643Z,97447.81
2022-11-30T03:41:37.238Z,97440.69
2022-11-30T03:44:03.819Z,97445.94
2022-11-30T03:46:30.598Z,97448.63
2022-11-30T03:48:57.245Z,97451.09
2022-11-30T03:51:23.851Z,97450.94
2022-11-30T03:53:50.497Z,97453.63
2022-11-30T03:56:17.312Z,97446.63
2022-11-30T03:58:43.950Z,97452.78
2022-11-30T04:01:16.137Z,97446.56
2022-11-30T04:03:43.587Z,97448.56
2022-11-30T04:06:12.373Z,97449.59
2022-11-30T04:08:40.125Z,97460.97
2022-11-30T04:11:07.149Z,97449.50
2022-11-30T04:13:35.774Z,97443.44
2022-11-30T04:16:02.609Z,97449.50
2022-11-30T04:18:30.521Z,97438.16
2022-11-30T04:20:59.380Z,97440.56
2022-11-30T04:23:30.002Z,97440.47
2022-11-30T04:25:57.449Z,97445.78
2022-11-30T04:28:24.176Z,97445.84
2022-11-30T04:30:50.793Z,97455.25
2022-11-30T04:33:17.353Z,97450.88
2022-11-30T04:35:49.340Z,97452.44
2022-11-30T04:38:16.006Z,97458.69
2022-11-30T04:40:43.517Z,97457.94
2022-11-30T04:43:11.664Z,97466.09
2022-11-30T04:45:38.696Z,97467.06
2022-11-30T04:48:06.180Z,97470.44
2022-11-30T04:50:33.080Z,97465.28
2022-11-30T04:52:59.839Z,97474.91
2022-11-30T04:55:26.580Z,97468.72
2022-11-30T04:57:53.505Z,97477.47
2022-11-30T05:00:20.385Z,97470.66
2022-11-30T05:02:52.435Z,97471.53
2022-11-30T05:05:20.132Z,97473.16
2022-11-30T05:07:54.546Z,97484.47
2022-11-30T05:10:21.158Z,97467.97
2022-11-30T05:12:47.838Z,97473.06
2022-11-30T05:15:14.448Z,97467.00
2022-11-30T05:17:41.044Z,97469.69
2022-11-30T05:20:08.004Z,97464.44
2022-11-30T05:22:37.524Z,97462.81
2022-11-30T05:25:04.388Z,97456.47
2022-11-30T05:27:30.979Z,97449.59
2022-11-30T05:29:57.537Z,97460.06
2022-11-30T05:32:24.202Z,97466.13
2022-11-30T05:34:51.924Z,97458.28
2022-11-30T05:37:19.694Z,97460.19
2022-11-30T05:39:46.353Z,97461.81
2022-11-30T05:42:12.999Z,97463.47
2022-11-30T05:44:39.575Z,97467.19
2022-11-30T05:47:06.277Z,97462.13
2022-11-30T05:49:32.888Z,97466.22
2022-11-30T05:51:59.498Z,97467.34
2022-11-30T05:54:26.059Z,97476.06
2022-11-30T05:56:55.000Z,97478.66
2022-11-30T05:59:22.789Z,97476.09
2022-11-30T06:01:52.370Z,97469.09
2022-11-30T06:04:19.717Z,97476.94
2022-11-30T06:06:46.365Z,97481.47
2022-11-30T06:09:12.980Z,97475.47
2022-11-30T06:11:39.558Z,97481.63
2022-11-30T06:14:06.276Z,97475.38
2022-11-30T06:16:33.121Z,97480.69
2022-11-30T06:18:59.911Z,97469.56
2022-11-30T06:21:26.490Z,97480.09
2022-11-30T06:23:53.121Z,97477.16
2022-11-30T06:26:19.796Z,97479.69
2022-11-30T06:28:48.439Z,97477.94
2022-11-30T06:31:16.162Z,97475.19
2022-11-30T06:33:42.950Z,97482.16
2022-11-30T06:36:09.967Z,97482.06
2022-11-30T06:38:36.830Z,97478.84
2022-11-30T06:41:09.283Z,97484.16
2022-11-30T06:43:39.642Z,97481.63
2022-11-30T06:46:07.584Z,97487.03
2022-11-30T06:48:35.467Z,97491.34
2022-11-30T06:51:05.598Z,97492.94
2022-11-30T06:53:32.203Z,97488.47
2022-11-30T06:55:58.790Z,97497.94
2022-11-30T06:58:25.378Z,97492.59
2022-11-30T07:00:51.965Z,97500.72
2022-11-30T07:03:18.584Z,97499.00
2022-11-30T07:05:46.903Z,97506.66
2022-11-30T07:08:17.466Z,97499.63
2022-11-30T07:10:45.801Z,97508.50
2022-11-30T07:13:18.405Z,97508.31
2022-11-30T07:15:45.671Z,97513.47
2022-11-30T07:18:12.768Z,97509.22
2022-11-30T07:20:39.643Z,97515.34
2022-11-30T07:23:24.725Z,97519.63
2022-11-30T07:26:08.081Z,97522.16
2022-11-30T07:28:36.593Z,97526.72
2022-11-30T07:31:23.446Z,97521.31
2022-11-30T07:33:50.697Z,97522.09
2022-11-30T07:36:19.039Z,97524.72
2022-11-30T07:38:46.268Z,97526.34
2022-11-30T07:41:13.210Z,97528.94
2022-11-30T07:43:40.370Z,97532.63
2022-11-30T07:46:07.392Z,97538.72
2022-11-30T07:48:35.220Z,97531.63
2022-11-30T07:51:06.890Z,97540.28
2022-11-30T07:53:34.226Z,97534.06
2022-11-30T07:56:12.106Z,97541.84
2022-11-30T07:58:39.506Z,97540.94
2022-11-30T08:01:08.735Z,97536.56
2022-11-30T08:03:37.431Z,97538.31
2022-11-30T08:06:10.081Z,97530.41
2022-11-30T08:08:39.118Z,97539.88
2022-11-30T08:11:07.848Z,97543.31
2022-11-30T08:13:34.520Z,97539.03
2022-11-30T08:16:06.784Z,97548.53
2022-11-30T08:18:33.418Z,97537.16
2022-11-30T08:21:02.646Z,97544.16
2022-11-30T08:23:31.052Z,97543.47
2022-11-30T08:26:03.425Z,97545.19
2022-11-30T08:28:30.748Z,97552.97
2022-11-30T08:31:01.406Z,97541.84
2022-11-30T08:33:30.789Z,97536.75
2022-11-30T08:36:07.863Z,97545.47
2022-11-30T08:38:35.044Z,97549.47
2022-11-30T08:41:02.171Z,97547.53
2022-11-30T08:43:28.904Z,97549.13
2022-11-30T08:45:57.322Z,97557.66
2022-11-30T08:48:24.431Z,97539.97
2022-11-30T08:50:51.567Z,97552.84
2022-11-30T08:53:18.208Z,97549.13
2022-11-30T08:55:54.492Z,97547.94
2022-11-30T08:58:21.088Z,97547.94
2022-11-30T09:00:47.677Z,97548.63
2022-11-30T09:03:14.285Z,97543.06
2022-11-30T09:05:40.849Z,97547.53
2022-11-30T09:08:07.611Z,97546.03
2022-11-30T09:10:34.240Z,97549.06
2022-11-30T09:13:00.879Z,97552.03
2022-11-30T09:15:27.985Z,97549.75
2022-11-30T09:17:54.547Z,97554.94
2022-11-30T09:20:21.136Z,97560.88
2022-11-30T09:22:47.712Z,97566.91
2022-11-30T09:25:14.408Z,97563.50
2022-11-30T09:27:40.951Z,97561.88
2022-11-30T09:30:08.157Z,97560.69
2022-11-30T09:32:34.769Z,97558.06
2022-11-30T09:35:01.378Z,97557.84
2022-11-30T09:37:27.952Z,97562.19
2022-11-30T09:39:54.573Z,97563.16
2022-11-30T09:42:31.735Z,97565.34
2022-11-30T09:45:03.194Z,97564.91
2022-11-30T09:47:39.021Z,97571.00
2022-11-30T09:50:16.100Z,97562.06
2022-11-30T09:52:46.899Z,97571.13
2022-11-30T09:55:22.349Z,97577.34
2022-11-30T09:57:58.792Z,97563.00
2022-11-30T10:00:25.827Z,97559.97
2022-11-30T10:02:56.225Z,97574.66
2022-11-30T10:05:47.901Z,97561.56
2022-11-30T10:08:28.108Z,97562.41
2022-11-30T10:11:08.798Z,97563.03
2022-11-30T10:13:55.651Z,97568.34
2022-11-30T10:16:43.902Z,97560.63
2022-11-30T10:19:41.522Z,97561.47
2022-11-30T10:22:26.057Z,97563.03
2022-11-30T10:25:14.525Z,97557.72
2022-11-30T10:27:50.845Z,97568.34
2022-11-30T10:30:32.443Z,97555.94
2022-11-30T10:33:07.574Z,97555.47
2022-11-30T10:35:34.132Z,97552.94
2022-11-30T10:38:10.674Z,97557.50
2022-11-30T10:40:53.040Z,97562.59
2022-11-30T10:43:48.751Z,97562.41
2022-11-30T10:46:22.170Z,97556.75
2022-11-30T10:48:57.737Z,97554.03
2022-11-30T10:51:26.616Z,97556.81
2022-11-30T10:53:53.297Z,97548.97
2022-11-30T10:56:19.979Z,97556.59
2022-11-30T10:58:56.721Z,97557.38
2022-11-30T11:01:41.034Z,97557.00
2022-11-30T11:04:17.533Z,97549.72
2022-11-30T11:06:52.638Z,97551.34
2022-11-30T11:09:24.358Z,97549.91
2022-11-30T11:11:59.652Z,97546.44
2022-11-30T11:14:28.202Z,97539.16
2022-11-30T11:17:00.303Z,97548.13
2022-11-30T11:19:42.217Z,97548.88
2022-11-30T11:22:26.839Z,97547.28
2022-11-30T11:25:19.268Z,97547.94
2022-11-30T11:27:55.614Z,97540.72
2022-11-30T11:30:25.167Z,97536.53
2022-11-30T11:33:25.729Z,97545.41
2022-11-30T11:36:14.347Z,97539.19
2022-11-30T11:38:43.729Z,97542.50
2022-11-30T11:41:17.017Z,97543.22
2022-11-30T11:43:58.519Z,97539.25
2022-11-30T11:46:25.325Z,97553.91
2022-11-30T11:49:21.259Z,97551.50
2022-11-30T11:51:58.929Z,97546.94
2022-11-30T11:54:50.920Z,97549.44
2022-11-30T11:57:21.371Z,97541.00
2022-11-30T11:59:54.924Z,97540.88
2022-11-30T12:02:39.833Z,97538.03
2022-11-30T12:05:17.734Z,97537.91
2022-11-30T12:07:56.307Z,97534.00
2022-11-30T12:13:27.135Z,97533.84
2022-11-30T12:16:08.783Z,97544.84
2022-11-30T12:19:10.626Z,97534.94
2022-11-30T12:21:54.887Z,97537.47
2022-11-30T12:25:05.531Z,97543.88
2022-11-30T12:27:43.274Z,97543.66
2022-11-30T12:30:33.253Z,97548.34
2022-11-30T12:33:15.680Z,97544.38
2022-11-30T12:35:58.657Z,97547.19
2022-11-30T12:38:53.304Z,97552.41
2022-11-30T12:41:37.246Z,97553.34
2022-11-30T12:44:28.859Z,97546.47
2022-11-30T12:47:18.443Z,97548.66
2022-11-30T12:50:03.269Z,97545.06
2022-11-30T12:52:39.100Z,97550.34
2022-11-30T12:55:24.215Z,97557.25
2022-11-30T12:58:15.092Z,97551.25
2022-11-30T13:01:09.605Z,97551.84
2022-11-30T13:03:49.355Z,97555.25
2022-11-30T13:06:23.294Z,97553.41
2022-11-30T13:09:02.993Z,97550.84
2022-11-30T13:11:36.378Z,97553.47
2022-11-30T13:14:09.917Z,97551.00
2022-11-30T13:16:37.247Z,97549.50
2022-11-30T13:19:29.877Z,97550.41
2022-11-30T13:22:02.644Z,97555.88
2022-11-30T13:24:44.620Z,97555.78
2022-11-30T13:27:21.627Z,97551.59
2022-11-30T13:30:19.334Z,97549.88
2022-11-30T13:33:01.316Z,97553.34
2022-11-30T13:35:27.877Z,97556.69
2022-11-30T13:38:35.126Z,97555.53
2022-11-30T13:40:55.467Z,97555.66
2022-11-30T13:43:23.767Z,97549.75
2022-11-30T13:46:03.009Z,97548.00
2022-11-30T13:48:38.442Z,97541.78
2022-11-30T13:51:05.635Z,97547.28
2022-11-30T13:53:35.919Z,97539.44
2022-11-30T13:56:11.454Z,97541.91
2022-11-30T13:59:16.672Z,97542.03
2022-11-30T14:01:43.324Z,97544.91
2022-11-30T14:04:18.816Z,97552.28
2022-11-30T14:06:51.570Z,97552.22
2022-11-30T14:09:36.861Z,97546.06
2022-11-30T14:12:31.380Z,97553.91
2022-11-30T14:14:59.595Z,97549.06
2022-11-30T14:17:28.877Z,97545.56
2022-11-30T14:20:07.590Z,97550.19
2022-11-30T14:22:34.864Z,97552.19
2022-11-30T14:25:02.975Z,97551.09
2022-11-30T14:27:30.462Z,97558.97
2022-11-30T14:30:02.782Z,97566.72
2022-11-30T14:32:38.010Z,97566.91
2022-11-30T14:35:18.149Z,97562.28
2022-11-30T14:37:52.467Z,97562.59
2022-11-30T14:40:22.002Z,97563.28
2022-11-30T14:42:50.974Z,97566.06
2022-11-30T14:45:26.684Z,97567.09
2022-11-30T14:48:05.630Z,97571.19
2022-11-30T14:50:32.968Z,97565.94
2022-11-30T14:53:11.241Z,97571.03
2022-11-30T14:55:59.719Z,97570.13
2022-11-30T14:58:39.009Z,97565.63
2022-11-30T15:01:25.665Z,97572.50
2022-11-30T15:03:55.707Z,97570.53
2022-11-30T15:06:28.958Z,97573.22
2022-11-30T15:08:58.025Z,97572.59
2022-11-30T15:11:25.096Z,97582.50
2022-11-30T15:13:54.482Z,97586.97
2022-11-30T15:16:24.754Z,97586.06
2022-11-30T15:18:53.805Z,97580.34
2022-11-30T15:21:26.136Z,97572.63
2022-11-30T15:23:55.326Z,97583.03
2022-11-30T15:26:37.399Z,97577.66
2022-11-30T15:29:09.718Z,97576.28
2022-11-30T15:31:41.691Z,97580.56
2022-11-30T15:34:18.669Z,97579.44
2022-11-30T15:36:46.389Z,97575.19
2022-11-30T15:39:33.212Z,97574.56
2022-11-30T15:42:02.184Z,97580.66
2022-11-30T15:44:37.762Z,97585.66
2022-11-30T15:47:08.201Z,97583.72
2022-11-30T15:49:36.392Z,97580.03
2022-11-30T15:52:09.191Z,97586.06
2022-11-30T15:54:43.914Z,97592.13
2022-11-30T15:57:10.953Z,97586.91
2022-11-30T15:59:37.555Z,97589.50
2022-11-30T16:02:16.431Z,97582.72
2022-11-30T16:04:58.107Z,97594.28
2022-11-30T16:07:28.566Z,97590.31
2022-11-30T16:10:06.331Z,97596.25
2022-11-30T16:12:33.456Z,97590.03
2022-11-30T16:15:00.049Z,97587.47
2022-11-30T16:17:28.202Z,97599.41
2022-11-30T16:19:54.734Z,97595.25
2022-11-30T16:22:21.364Z,97589.84
2022-11-30T16:24:48.050Z,97595.75
2022-11-30T16:27:19.494Z,97593.06
2022-11-30T16:29:52.135Z,97598.13
2022-11-30T16:32:19.518Z,97599.03
2022-11-30T16:34:48.024Z,97602.72
2022-11-30T16:37:14.803Z,97603.78
2022-11-30T16:39:41.464Z,97604.00
2022-11-30T16:42:12.400Z,97608.25
2022-11-30T16:44:39.004Z,97609.97
2022-11-30T16:47:05.613Z,97617.16
2022-11-30T16:49:32.240Z,97617.81
2022-11-30T16:51:58.876Z,97622.13
2022-11-30T16:54:25.456Z,97620.50
2022-11-30T16:56:52.063Z,97624.09
2022-11-30T16:59:18.630Z,97622.25
2022-11-30T17:01:47.368Z,97624.00
2022-11-30T17:04:19.606Z,97633.63
2022-11-30T17:06:50.207Z,97624.09
2022-11-30T17:09:20.276Z,97628.47
2022-11-30T17:11:50.447Z,97629.31
2022-11-30T17:14:17.564Z,97638.69
2022-11-30T17:16:44.188Z,97636.06
2022-11-30T17:19:11.677Z,97635.25
2022-11-30T17:21:39.979Z,97642.38
2022-11-30T17:24:07.059Z,97643.22
2022-11-30T17:26:33.815Z,97644.25
2022-11-30T17:29:00.441Z,97639.78
2022-11-30T17:31:27.175Z,97640.75
2022-11-30T17:33:53.918Z,97646.06
2022-11-30T17:36:20.559Z,97640.84
2022-11-30T17:38:47.184Z,97641.47
2022-11-30T17:41:19.108Z,97651.22
2022-11-30T17:43:46.674Z,97647.19
2022-11-30T17:46:15.768Z,97644.50
2022-11-30T17:48:43.725Z,97655.06
2022-11-30T17:51:10.982Z,97655.88
2022-11-30T17:53:38.651Z,97651.44
2022-11-30T17:56:12.691Z,97654.78
2022-11-30T17:58:43.915Z,97653.13
2022-11-30T18:01:25.501Z,97653.25
2022-11-30T18:03:53.575Z,97668.94
2022-11-30T18:06:20.556Z,97665.47
2022-11-30T18:08:47.392Z,97661.81
2022-11-30T18:11:17.400Z,97655.81
2022-11-30T18:13:43.999Z,97658.34
2022-11-30T18:16:19.838Z,97652.28
2022-11-30T18:18:48.521Z,97657.50
2022-11-30T18:21:19.190Z,97657.63
2022-11-30T18:23:46.037Z,97664.56
2022-11-30T18:26:15.575Z,97664.56
2022-11-30T18:28:42.921Z,97668.81
2022-11-30T18:31:09.941Z,97674.19
2022-11-30T18:33:37.446Z,97669.59
2022-11-30T18:36:07.529Z,97671.44
2022-11-30T18:38:37.964Z,97674.34
2022-11-30T18:41:06.392Z,97674.19
2022-11-30T18:43:33.980Z,97676.66
2022-11-30T18:46:05.490Z,97679.34
2022-11-30T18:48:32.307Z,97679.28
2022-11-30T18:50:58.891Z,97674.91
2022-11-30T18:53:25.764Z,97676.03
2022-11-30T18:55:52.356Z,97678.56
2022-11-30T18:58:18.916Z,97679.50
2022-11-30T19:00:45.501Z,97681.16
2022-11-30T19:03:12.080Z,97683.81
2022-11-30T19:05:40.481Z,97683.09
2022-11-30T19:08:11.398Z,97678.56
2022-11-30T19:10:39.808Z,97684.63
2022-11-30T19:13:07.096Z,97685.41
2022-11-30T19:15:41.127Z,97683.66
2022-11-30T19:18:10.871Z,97691.56
2022-11-30T19:20:41.458Z,97682.19
2022-11-30T19:23:08.369Z,97683.88
2022-11-30T19:25:35.023Z,97683.81
2022-11-30T19:28:01.606Z,97690.00
2022-11-30T19:30:28.243Z,97689.28
2022-11-30T19:32:54.858Z,97690.06
2022-11-30T19:35:23.139Z,97690.94
2022-11-30T19:37:52.241Z,97687.34
2022-11-30T19:40:19.192Z,97683.94
2022-11-30T19:42:45.827Z,97687.41
2022-11-30T19:45:12.431Z,97692.50
2022-11-30T19:47:39.124Z,97691.50
2022-11-30T19:50:06.215Z,97693.25
2022-11-30T19:52:32.798Z,97692.47
2022-11-30T19:54:59.389Z,97695.09
2022-11-30T19:57:25.996Z,97691.78
2022-11-30T19:59:52.601Z,97689.09
2022-11-30T20:02:19.240Z,97690.00
2022-11-30T20:04:45.973Z,97696.16
2022-11-30T20:07:13.898Z,97694.53
2022-11-30T20:09:40.950Z,97695.47
2022-11-30T20:12:07.566Z,97696.28
2022-11-30T20:14:34.158Z,97697.06
2022-11-30T20:17:00.706Z,97698.63
2022-11-30T20:19:27.583Z,97698.63
2022-11-30T20:21:54.200Z,97703.09
2022-11-30T20:24:20.864Z,97694.41
2022-11-30T20:26:47.473Z,97703.03
2022-11-30T20:29:16.063Z,97704.84
2022-11-30T20:31:45.034Z,97708.44
2022-11-30T20:34:11.678Z,97704.97
2022-11-30T20:36:38.280Z,97695.31
2022-11-30T20:39:05.896Z,97699.69
2022-11-30T20:41:34.012Z,97697.84
2022-11-30T20:44:00.612Z,97699.75
2022-11-30T20:46:32.831Z,97692.56
2022-11-30T20:49:01.203Z,97708.44
2022-11-30T20:51:34.724Z,97701.25
2022-11-30T20:54:08.520Z,97702.09
2022-11-30T20:56:37.207Z,97696.22
2022-11-30T20:59:08.789Z,97698.84
2022-11-30T21:01:35.472Z,97698.78
2022-11-30T21:04:02.439Z,97703.78
2022-11-30T21:06:30.441Z,97706.47
2022-11-30T21:08:57.996Z,97696.94
2022-11-30T21:11:24.920Z,97701.22
2022-11-30T21:13:52.169Z,97695.94
2022-11-30T21:16:27.341Z,97716.94
2022-11-30T21:18:56.029Z,97702.19
2022-11-30T21:21:24.537Z,97703.88
2022-11-30T21:23:51.732Z,97703.78
2022-11-30T21:26:18.270Z,97705.56
2022-11-30T21:28:46.062Z,97707.34
2022-11-30T21:31:13.074Z,97704.63
2022-11-30T21:33:40.107Z,97707.31
2022-11-30T21:36:08.952Z,97698.66
2022-11-30T21:38:35.878Z,97698.63
2022-11-30T21:41:03.188Z,97702.97
2022-11-30T21:43:32.774Z,97698.78
2022-11-30T21:46:08.363Z,97703.84
2022-11-30T21:48:36.558Z,97703.03
2022-11-30T21:51:14.939Z,97709.00
2022-11-30T21:53:45.072Z,97701.88
2022-11-30T21:56:15.485Z,97699.34
2022-11-30T21:58:45.557Z,97704.00
2022-11-30T22:01:18.238Z,97700.59
2022-11-30T22:03:45.153Z,97705.75
2022-11-30T22:06:14.196Z,97698.94
2022-11-30T22:08:41.324Z,97700.59
2022-11-30T22:11:10.368Z,97705.03
2022-11-30T22:13:37.697Z,97698.91
2022-11-30T22:16:07.525Z,97700.66
2022-11-30T22:18:34.743Z,97701.50
2022-11-30T22:21:10.085Z,97710.25
2022-11-30T22:23:39.237Z,97707.66
2022-11-30T22:26:15.114Z,97706.75
2022-11-30T22:28:44.823Z,97713.41
2022-11-30T22:31:13.391Z,97706.50
2022-11-30T22:33:42.364Z,97714.53
2022-11-30T22:36:13.686Z,97710.06
2022-11-30T22:38:40.668Z,97713.66
2022-11-30T22:41:10.744Z,97717.84
2022-11-30T22:43:37.682Z,97710.94
2022-11-30T22:46:13.530Z,97707.47
2022-11-30T22:48:41.305Z,97716.16
2022-11-30T22:51:19.676Z,97717.97
2022-11-30T22:53:49.738Z,97715.44
2022-11-30T22:56:25.208Z,97711.97
2022-11-30T22:58:54.198Z,97716.34
2022-11-30T23:01:23.783Z,97717.06
2022-11-30T23:03:53.530Z,97712.63
2022-11-30T23:06:21.051Z,97712.75
2022-11-30T23:08:48.772Z,97709.28
2022-11-30T23:11:22.014Z,97711.06
2022-11-30T23:13:49.162Z,97711.97
2022-11-30T23:16:16.561Z,97696.94
2022-11-30T23:18:45.928Z,97697.78
2022-11-30T23:21:15.381Z,97696.00
2022-11-30T23:23:42.406Z,97692.63
2022-11-30T23:26:33.790Z,97694.47
2022-11-30T23:29:03.697Z,97700.59
2022-11-30T23:31:35.242Z,97688.25
2022-11-30T23:34:08.381Z,97696.16
2022-11-30T23:36:35.823Z,97693.59
2022-11-30T23:39:05.988Z,97700.75
2022-11-30T23:41:32.958Z,97691.91
2022-11-30T23:43:59.967Z,97698.84
2022-11-30T23:46:26.627Z,97688.44
2022-11-30T23:48:54.877Z,97684.91
2022-11-30T23:51:22.316Z,97690.13
2022-11-30T23:53:48.939Z,97691.06
2022-11-30T23:56:17.639Z,97699.81
2022-11-30T23:58:45.224Z,97688.47
